createdAt,value
2023-04-08T00:00:33.598Z,1.50
2023-04-08T00:03:00.950Z,1.40
2023-04-08T00:05:28.265Z,1.50
2023-04-08T00:07:55.554Z,1.40
2023-04-08T00:10:22.818Z,1.43
2023-04-08T00:12:49.933Z,1.47
2023-04-08T00:15:17.259Z,1.50
2023-04-08T00:17:45.381Z,1.50
2023-04-08T00:20:12.578Z,1.47
2023-04-08T00:22:39.692Z,1.30
2023-04-08T00:25:07.141Z,1.63
2023-04-08T00:27:34.366Z,1.30
2023-04-08T00:30:03.010Z,1.40
2023-04-08T00:32:30.264Z,1.50
2023-04-08T00:34:57.429Z,1.33
2023-04-08T00:37:25.047Z,1.43
2023-04-08T00:39:54.182Z,1.50
2023-04-08T00:42:22.059Z,1.60
2023-04-08T00:44:50.568Z,1.40
2023-04-08T00:47:17.827Z,1.40
2023-04-08T00:49:45.354Z,1.37
2023-04-08T00:52:12.714Z,1.30
2023-04-08T00:54:39.871Z,1.53
2023-04-08T00:57:07.254Z,1.40
2023-04-08T00:59:36.131Z,1.60
2023-04-08T01:02:14.998Z,1.40
2023-04-08T01:05:01.137Z,1.50
2023-04-08T01:07:29.709Z,1.50
2023-04-08T01:09:58.161Z,1.50
2023-04-08T01:12:29.498Z,1.50
2023-04-08T01:14:59.974Z,1.43
2023-04-08T01:17:27.186Z,1.70
2023-04-08T01:19:55.673Z,1.40
2023-04-08T01:22:29.767Z,1.50
2023-04-08T01:25:01.653Z,1.60
2023-04-08T01:27:31.704Z,1.40
2023-04-08T01:29:59.413Z,1.47
2023-04-08T01:32:27.587Z,1.60
2023-04-08T01:34:55.991Z,1.47
2023-04-08T01:37:23.305Z,1.73
2023-04-08T01:39:51.006Z,1.67
2023-04-08T01:42:18.528Z,1.60
2023-04-08T01:44:46.444Z,1.60
2023-04-08T01:47:14.428Z,1.60
2023-04-08T01:49:41.950Z,1.60
2023-04-08T01:52:10.430Z,1.60
2023-04-08T01:54:37.648Z,1.50
2023-04-08T01:57:09.174Z,1.70
2023-04-08T01:59:36.958Z,1.50
2023-04-08T02:02:06.428Z,1.60
2023-04-08T02:04:34.740Z,1.80
2023-04-08T02:07:02.913Z,1.60
2023-04-08T02:09:30.359Z,1.50
2023-04-08T02:11:57.861Z,1.50
2023-04-08T02:14:26.227Z,1.70
2023-04-08T02:17:05.411Z,1.50
2023-04-08T02:19:36.770Z,1.50
2023-04-08T02:22:06.839Z,1.60
2023-04-08T02:24:34.990Z,1.53
2023-04-08T02:27:04.099Z,1.67
2023-04-08T02:29:32.295Z,1.73
2023-04-08T02:32:02.154Z,1.50
2023-04-08T02:34:30.592Z,1.77
2023-04-08T02:36:57.866Z,1.80
2023-04-08T02:39:31.879Z,1.70
2023-04-08T02:41:59.050Z,1.83
2023-04-08T02:44:26.168Z,1.50
2023-04-08T02:46:53.293Z,1.77
2023-04-08T02:49:20.775Z,1.70
2023-04-08T02:51:47.952Z,1.90
2023-04-08T02:54:15.413Z,1.70
2023-04-08T02:56:42.723Z,1.70
2023-04-08T02:59:09.874Z,1.80
2023-04-08T03:01:37.122Z,1.60
2023-04-08T03:04:04.409Z,1.67
2023-04-08T03:06:32.190Z,1.80
2023-04-08T03:08:59.350Z,1.83
2023-04-08T03:11:26.656Z,1.70
2023-04-08T03:13:53.843Z,1.57
2023-04-08T03:16:21.369Z,1.70
2023-04-08T03:18:50.404Z,1.80
2023-04-08T03:21:17.899Z,1.90
2023-04-08T03:23:45.652Z,1.70
2023-04-08T03:26:12.781Z,1.63
2023-04-08T03:28:39.908Z,1.70
2023-04-08T03:31:07.319Z,1.77
2023-04-08T03:33:34.450Z,1.70
2023-04-08T03:36:01.621Z,1.90
2023-04-08T03:38:28.821Z,1.87
2023-04-08T03:40:55.939Z,1.90
2023-04-08T03:43:23.242Z,1.70
2023-04-08T03:45:50.415Z,2.00
2023-04-08T03:48:17.544Z,1.93
2023-04-08T03:50:44.669Z,1.80
2023-04-08T03:53:12.872Z,1.90
2023-04-08T03:55:40.119Z,1.90
2023-04-08T03:58:07.268Z,1.90
2023-04-08T04:00:34.413Z,1.90
2023-04-08T04:03:01.992Z,1.93
2023-04-08T04:05:29.887Z,1.90
2023-04-08T04:07:58.387Z,1.80
2023-04-08T04:10:25.592Z,1.73
2023-04-08T04:12:52.718Z,2.00
2023-04-08T04:15:19.886Z,1.93
2023-04-08T04:17:49.072Z,1.70
2023-04-08T04:20:16.340Z,1.87
2023-04-08T04:22:43.527Z,2.10
2023-04-08T04:25:11.093Z,1.80
2023-04-08T04:27:38.261Z,1.90
2023-04-08T04:30:05.725Z,2.10
2023-04-08T04:32:32.960Z,2.07
2023-04-08T04:35:00.248Z,2.27
2023-04-08T04:37:27.538Z,2.20
2023-04-08T04:39:54.704Z,2.00
2023-04-08T04:42:21.827Z,2.10
2023-04-08T04:44:49.388Z,1.90
2023-04-08T04:47:16.573Z,1.90
2023-04-08T04:49:43.796Z,2.10
2023-04-08T04:52:11.633Z,2.00
2023-04-08T04:54:38.772Z,1.80
2023-04-08T04:57:06.111Z,2.23
2023-04-08T04:59:33.260Z,1.90
2023-04-08T05:02:00.511Z,1.73
2023-04-08T05:04:27.822Z,1.90
2023-04-08T05:06:54.987Z,1.90
2023-04-08T05:09:22.186Z,1.77
2023-04-08T05:11:49.293Z,2.10
2023-04-08T05:14:16.410Z,2.10
2023-04-08T05:16:43.582Z,2.00
2023-04-08T05:19:10.748Z,2.10
2023-04-08T05:21:37.905Z,2.07
2023-04-08T05:24:05.442Z,2.20
2023-04-08T05:26:33.012Z,2.20
2023-04-08T05:29:00.341Z,2.00
2023-04-08T05:31:27.668Z,2.03
2023-04-08T05:33:54.842Z,2.10
2023-04-08T05:36:22.022Z,2.30
2023-04-08T05:38:49.367Z,2.30
2023-04-08T05:41:16.782Z,2.57
2023-04-08T05:43:43.953Z,2.30
2023-04-08T05:46:11.602Z,2.53
2023-04-08T05:48:38.772Z,2.70
2023-04-08T05:51:05.913Z,2.57
2023-04-08T05:53:33.035Z,2.37
2023-04-08T05:56:00.251Z,2.50
2023-04-08T05:58:27.393Z,2.50
2023-04-08T06:00:55.535Z,2.53
2023-04-08T06:03:22.932Z,2.27
2023-04-08T06:05:50.336Z,2.50
2023-04-08T06:08:17.463Z,2.53
2023-04-08T06:10:51.108Z,2.70
2023-04-08T06:13:18.430Z,2.77
2023-04-08T06:15:45.592Z,2.77
2023-04-08T06:18:12.723Z,2.43
2023-04-08T06:20:39.852Z,2.33
2023-04-08T06:23:06.979Z,2.70
2023-04-08T06:25:34.088Z,2.70
2023-04-08T06:28:01.246Z,2.43
2023-04-08T06:30:28.449Z,2.70
2023-04-08T06:32:55.722Z,2.60
2023-04-08T06:35:22.997Z,2.70
2023-04-08T06:37:50.229Z,2.57
2023-04-08T06:40:17.412Z,2.90
2023-04-08T06:42:44.562Z,2.47
2023-04-08T06:45:12.277Z,2.80
2023-04-08T06:47:39.454Z,3.10
2023-04-08T06:50:06.979Z,2.90
2023-04-08T06:52:34.195Z,2.70
2023-04-08T06:55:01.569Z,2.80
2023-04-08T06:57:28.762Z,2.87
2023-04-08T06:59:56.472Z,2.50
2023-04-08T07:02:23.773Z,2.60
2023-04-08T07:04:50.992Z,2.40
2023-04-08T07:07:18.293Z,2.20
2023-04-08T07:09:46.513Z,2.30
2023-04-08T07:12:13.885Z,2.40
2023-04-08T07:14:41.038Z,2.40
2023-04-08T07:17:08.541Z,2.10
2023-04-08T07:19:36.047Z,2.30
2023-04-08T07:22:03.220Z,2.10
2023-04-08T07:24:30.399Z,2.40
2023-04-08T07:26:58.206Z,2.40
2023-04-08T07:29:25.410Z,2.40
2023-04-08T07:31:52.546Z,2.20
2023-04-08T07:34:19.708Z,2.20
2023-04-08T07:36:46.906Z,2.17
2023-04-08T07:39:14.101Z,2.20
2023-04-08T07:41:41.336Z,2.30
2023-04-08T07:44:08.448Z,2.40
2023-04-08T07:46:39.047Z,2.53
2023-04-08T07:49:06.761Z,2.50
2023-04-08T07:51:33.894Z,2.43
2023-04-08T07:54:01.172Z,2.40
2023-04-08T07:56:28.369Z,2.50
2023-04-08T07:58:55.832Z,2.80
2023-04-08T08:01:23.801Z,2.50
2023-04-08T08:03:52.264Z,2.40
2023-04-08T08:06:20.865Z,2.57
2023-04-08T08:08:48.281Z,2.40
2023-04-08T08:11:15.452Z,2.60
2023-04-08T08:13:42.759Z,2.60
2023-04-08T08:16:11.584Z,2.63
2023-04-08T08:18:40.246Z,2.50
2023-04-08T08:21:07.680Z,2.43
2023-04-08T08:23:34.799Z,2.57
2023-04-08T08:26:03.056Z,2.50
2023-04-08T08:28:30.255Z,2.70
2023-04-08T08:30:57.531Z,2.83
2023-04-08T08:33:25.379Z,2.80
2023-04-08T08:35:52.793Z,2.70
2023-04-08T08:38:20.396Z,2.60
2023-04-08T08:40:47.651Z,2.60
2023-04-08T08:43:14.914Z,2.90
2023-04-08T08:45:42.566Z,2.53
2023-04-08T08:48:09.926Z,2.80
2023-04-08T08:50:37.155Z,2.90
2023-04-08T08:53:04.524Z,2.60
2023-04-08T08:56:02.145Z,2.43
2023-04-08T08:58:23.311Z,5.57
2023-04-08T09:00:50.678Z,2.90
2023-04-08T09:03:18.024Z,2.67
2023-04-08T09:05:55.577Z,2.57
2023-04-08T09:08:30.380Z,2.70
2023-04-08T09:11:11.465Z,2.80
2023-04-08T09:13:38.608Z,2.50
2023-04-08T09:16:07.313Z,2.60
2023-04-08T09:18:34.656Z,2.30
2023-04-08T09:21:02.342Z,2.50
2023-04-08T09:23:39.384Z,2.90
2023-04-08T09:26:13.369Z,2.80
2023-04-08T09:28:41.814Z,2.87
2023-04-08T09:31:22.402Z,2.80
2023-04-08T09:33:55.537Z,2.80
2023-04-08T09:36:22.809Z,2.70
2023-04-08T09:38:50.599Z,2.30
2023-04-08T09:41:18.391Z,2.30
2023-04-08T09:43:51.971Z,2.33
2023-04-08T09:46:26.609Z,2.30
2023-04-08T09:48:57.745Z,2.47
2023-04-08T09:51:25.163Z,2.40
2023-04-08T09:54:02.056Z,2.30
2023-04-08T09:56:31.788Z,2.70
2023-04-08T09:59:00.823Z,2.33
2023-04-08T10:01:39.761Z,2.87
2023-04-08T10:04:10.916Z,2.53
2023-04-08T10:06:39.107Z,2.50
2023-04-08T10:09:07.400Z,2.70
2023-04-08T10:11:34.804Z,2.60
2023-04-08T10:14:02.175Z,2.60
2023-04-08T10:16:29.953Z,2.50
2023-04-08T10:18:57.707Z,2.63
2023-04-08T10:21:37.558Z,3.27
2023-04-08T10:24:07.823Z,2.70
2023-04-08T10:26:36.314Z,2.83
2023-04-08T10:29:18.729Z,2.87
2023-04-08T10:31:52.865Z,2.83
2023-04-08T10:34:21.487Z,3.10
2023-04-08T10:36:49.863Z,2.93
2023-04-08T10:39:17.621Z,3.27
2023-04-08T10:41:45.486Z,3.60
2023-04-08T10:44:19.396Z,2.70
2023-04-08T10:46:46.931Z,3.30
2023-04-08T10:49:14.479Z,3.00
2023-04-08T10:51:44.009Z,3.00
2023-04-08T10:54:15.197Z,2.90
2023-04-08T10:56:49.468Z,3.37
2023-04-08T10:59:17.770Z,3.10
2023-04-08T11:01:47.621Z,3.10
2023-04-08T11:04:15.811Z,2.83
2023-04-08T11:06:44.128Z,3.00
2023-04-08T11:09:11.951Z,3.13
2023-04-08T11:11:39.187Z,3.40
2023-04-08T11:14:07.098Z,3.40
2023-04-08T11:16:35.061Z,3.20
2023-04-08T11:19:06.513Z,3.60
2023-04-08T11:21:36.256Z,3.30
2023-04-08T11:24:07.216Z,3.20
2023-04-08T11:26:34.589Z,3.40
2023-04-08T11:29:01.827Z,3.45
2023-04-08T11:31:29.611Z,3.80
2023-04-08T11:33:56.777Z,3.90
2023-04-08T11:36:24.041Z,3.47
2023-04-08T11:38:51.376Z,3.63
2023-04-08T11:41:18.527Z,3.83
2023-04-08T11:43:52.488Z,3.90
2023-04-08T11:46:20.569Z,3.72
2023-04-08T11:49:00.759Z,3.40
2023-04-08T11:51:28.588Z,4.10
2023-04-08T11:53:56.788Z,3.75
2023-04-08T11:56:24.915Z,3.50
2023-04-08T11:58:52.288Z,3.88
2023-04-08T12:01:20.017Z,3.63
2023-04-08T12:03:56.894Z,3.50
2023-04-08T12:06:24.836Z,3.40
2023-04-08T12:08:51.948Z,3.60
2023-04-08T12:11:20.224Z,3.35
2023-04-08T12:13:49.808Z,3.38
2023-04-08T12:16:17.849Z,3.72
2023-04-08T12:18:45.110Z,3.83
2023-04-08T12:21:12.322Z,3.70
2023-04-08T12:23:39.476Z,3.72
2023-04-08T12:26:07.340Z,3.63
2023-04-08T12:28:37.558Z,3.55
2023-04-08T12:31:04.846Z,3.50
2023-04-08T12:33:32.354Z,3.80
2023-04-08T12:35:59.637Z,3.75
2023-04-08T12:38:27.263Z,3.25
2023-04-08T12:40:54.833Z,3.20
2023-04-08T12:43:22.124Z,3.45
2023-04-08T12:45:49.342Z,3.17
2023-04-08T12:48:16.534Z,3.45
2023-04-08T12:50:44.079Z,3.33
2023-04-08T12:53:11.572Z,3.35
2023-04-08T12:55:38.731Z,3.60
2023-04-08T12:58:06.109Z,3.42
2023-04-08T13:00:33.521Z,3.40
2023-04-08T13:03:00.830Z,3.72
2023-04-08T13:05:42.078Z,3.50
2023-04-08T13:08:12.387Z,3.33
2023-04-08T13:10:39.653Z,3.35
2023-04-08T13:13:06.831Z,3.95
2023-04-08T13:15:33.980Z,3.63
2023-04-08T13:18:01.340Z,3.40
2023-04-08T13:20:28.668Z,3.20
2023-04-08T13:22:55.799Z,3.40
2023-04-08T13:25:23.052Z,3.10
2023-04-08T13:27:50.286Z,3.35
2023-04-08T13:30:17.450Z,3.30
2023-04-08T13:32:44.773Z,3.33
2023-04-08T13:35:11.984Z,3.50
2023-04-08T13:37:39.134Z,3.40
2023-04-08T13:40:08.692Z,3.47
2023-04-08T13:42:35.922Z,4.03
2023-04-08T13:45:03.036Z,3.70
2023-04-08T13:47:31.146Z,3.65
2023-04-08T13:49:58.336Z,3.30
2023-04-08T13:52:25.620Z,3.90
2023-04-08T13:54:52.736Z,3.63
2023-04-08T13:57:19.886Z,3.60
2023-04-08T13:59:47.028Z,3.50
2023-04-08T14:02:14.246Z,3.10
2023-04-08T14:04:41.455Z,3.60
2023-04-08T14:07:09.179Z,3.43
2023-04-08T14:09:37.003Z,3.33
2023-04-08T14:12:04.197Z,3.43
2023-04-08T14:14:31.465Z,3.50
2023-04-08T14:16:58.715Z,3.43
2023-04-08T14:19:25.921Z,3.47
2023-04-08T14:21:53.072Z,3.50
2023-04-08T14:24:20.205Z,3.27
2023-04-08T14:26:47.421Z,3.63
2023-04-08T14:29:14.589Z,3.63
2023-04-08T14:31:41.765Z,3.33
2023-04-08T14:34:08.952Z,3.60
2023-04-08T14:36:36.188Z,3.60
2023-04-08T14:39:03.522Z,3.33
2023-04-08T14:41:30.659Z,3.57
2023-04-08T14:43:57.862Z,3.60
2023-04-08T14:46:28.788Z,3.77
2023-04-08T14:48:56.418Z,3.60
2023-04-08T14:51:23.619Z,3.50
2023-04-08T14:53:50.809Z,3.53
2023-04-08T14:56:17.929Z,3.67
2023-04-08T14:58:45.093Z,3.53
2023-04-08T15:01:12.301Z,3.97
2023-04-08T15:03:39.638Z,3.53
2023-04-08T15:06:07.966Z,3.50
2023-04-08T15:08:35.308Z,3.43
2023-04-08T15:11:02.538Z,3.40
2023-04-08T15:13:29.671Z,3.20
2023-04-08T15:15:56.916Z,3.90
2023-04-08T15:18:24.092Z,3.83
2023-04-08T15:20:51.552Z,3.77
2023-04-08T15:23:18.742Z,3.40
2023-04-08T15:25:46.402Z,3.40
2023-04-08T15:28:13.553Z,3.57
2023-04-08T15:30:40.841Z,3.50
2023-04-08T15:33:08.275Z,3.30
2023-04-08T15:35:35.551Z,3.50
2023-04-08T15:38:02.691Z,3.00
2023-04-08T15:40:32.183Z,3.20
2023-04-08T15:42:59.304Z,3.33
2023-04-08T15:45:26.621Z,3.57
2023-04-08T15:47:53.884Z,3.40
2023-04-08T15:50:21.242Z,3.23
2023-04-08T15:52:48.400Z,3.27
2023-04-08T15:55:15.529Z,3.30
2023-04-08T15:57:42.946Z,3.17
2023-04-08T16:00:11.142Z,3.20
2023-04-08T16:02:38.779Z,3.37
2023-04-08T16:05:06.410Z,3.30
2023-04-08T16:07:33.538Z,3.40
2023-04-08T16:10:00.775Z,3.33
2023-04-08T16:12:28.793Z,3.10
2023-04-08T16:14:56.043Z,3.27
2023-04-08T16:17:23.560Z,3.20
2023-04-08T16:19:51.857Z,3.47
2023-04-08T16:22:19.458Z,3.20
2023-04-08T16:24:46.615Z,2.90
2023-04-08T16:27:13.895Z,3.13
2023-04-08T16:29:42.093Z,2.93
2023-04-08T16:32:09.301Z,3.10
2023-04-08T16:34:36.549Z,2.70
2023-04-08T16:37:03.730Z,2.73
2023-04-08T16:39:31.012Z,3.00
2023-04-08T16:41:58.862Z,2.70
2023-04-08T16:44:26.047Z,2.80
2023-04-08T16:46:53.195Z,3.03
2023-04-08T16:49:20.407Z,3.03
2023-04-08T16:51:47.607Z,3.70
2023-04-08T16:54:14.804Z,3.50
2023-04-08T16:56:45.476Z,3.50
2023-04-08T16:59:12.951Z,2.90
2023-04-08T17:01:40.279Z,2.83
2023-04-08T17:04:07.622Z,2.37
2023-04-08T17:06:35.786Z,2.40
2023-04-08T17:09:03.853Z,2.30
2023-04-08T17:11:31.136Z,2.40
2023-04-08T17:13:58.321Z,2.20
2023-04-08T17:16:25.755Z,2.40
2023-04-08T17:18:53.020Z,2.10
2023-04-08T17:21:20.357Z,1.90
2023-04-08T17:23:47.571Z,2.03
2023-04-08T17:26:14.732Z,2.00
2023-04-08T17:28:41.902Z,1.93
2023-04-08T17:31:09.107Z,1.63
2023-04-08T17:33:36.307Z,1.80
2023-04-08T17:36:03.661Z,2.00
2023-04-08T17:38:30.923Z,1.73
2023-04-08T17:40:58.158Z,1.97
2023-04-08T17:43:25.378Z,1.93
2023-04-08T17:45:53.194Z,2.03
2023-04-08T17:48:20.433Z,1.80
2023-04-08T17:50:47.621Z,1.70
2023-04-08T17:53:14.818Z,2.00
2023-04-08T17:55:41.956Z,1.80
2023-04-08T17:58:09.116Z,1.80
2023-04-08T18:00:36.272Z,1.70
2023-04-08T18:03:03.557Z,1.60
2023-04-08T18:05:31.468Z,1.80
2023-04-08T18:07:59.253Z,1.73
2023-04-08T18:10:26.440Z,2.00
2023-04-08T18:12:57.790Z,1.80
2023-04-08T18:15:36.086Z,1.90
2023-04-08T18:18:03.424Z,1.90
2023-04-08T18:20:30.679Z,1.73
2023-04-08T18:23:00.185Z,1.87
2023-04-08T18:25:27.422Z,1.87
2023-04-08T18:27:54.572Z,1.90
2023-04-08T18:30:21.774Z,1.90
2023-04-08T18:32:48.940Z,2.00
2023-04-08T18:35:16.173Z,2.00
2023-04-08T18:37:43.304Z,1.90
2023-04-08T18:40:10.701Z,1.97
2023-04-08T18:42:37.849Z,1.90
2023-04-08T18:45:05.170Z,2.20
2023-04-08T18:47:32.506Z,2.20
2023-04-08T18:49:59.689Z,2.40
2023-04-08T18:52:26.809Z,2.57
2023-04-08T18:54:54.591Z,2.50
2023-04-08T18:57:21.996Z,2.40
2023-04-08T18:59:49.144Z,2.20
2023-04-08T19:02:16.605Z,2.67
2023-04-08T19:04:43.962Z,2.60
2023-04-08T19:07:12.121Z,2.60
2023-04-08T19:09:40.020Z,2.43
2023-04-08T19:12:07.191Z,2.47
2023-04-08T19:14:34.306Z,2.43
2023-04-08T19:17:01.823Z,3.20
2023-04-08T19:19:29.020Z,2.40
2023-04-08T19:21:56.194Z,2.50
2023-04-08T19:24:23.538Z,2.70
2023-04-08T19:26:52.968Z,2.87
2023-04-08T19:29:22.950Z,2.77
2023-04-08T19:31:50.207Z,2.50
2023-04-08T19:34:17.342Z,2.40
2023-04-08T19:36:44.490Z,2.10
2023-04-08T19:39:11.593Z,2.20
2023-04-08T19:41:38.771Z,2.17
2023-04-08T19:44:05.943Z,2.30
2023-04-08T19:46:33.139Z,2.07
2023-04-08T19:49:00.323Z,2.50
2023-04-08T19:51:29.100Z,2.27
2023-04-08T19:53:56.302Z,2.23
2023-04-08T19:56:23.489Z,2.50
2023-04-08T19:58:50.962Z,2.40
2023-04-08T20:01:18.882Z,2.50
2023-04-08T20:03:50.140Z,2.73
2023-04-08T20:06:17.952Z,3.03
2023-04-08T20:08:45.796Z,2.70
2023-04-08T20:11:13.279Z,3.07
2023-04-08T20:13:40.608Z,3.10
2023-04-08T20:16:07.864Z,2.90
2023-04-08T20:18:36.927Z,3.30
2023-04-08T20:21:05.177Z,3.80
2023-04-08T20:23:32.348Z,4.20
2023-04-08T20:25:59.658Z,3.50
2023-04-08T20:28:27.113Z,4.00
2023-04-08T20:30:54.500Z,3.80
2023-04-08T20:33:21.693Z,3.90
2023-04-08T20:35:50.470Z,3.80
2023-04-08T20:38:17.782Z,3.87
2023-04-08T20:40:45.192Z,3.90
2023-04-08T20:43:12.508Z,3.83
2023-04-08T20:45:39.731Z,3.87
2023-04-08T20:48:07.523Z,3.33
2023-04-08T20:50:34.844Z,3.73
2023-04-08T20:53:02.212Z,3.50
2023-04-08T20:55:29.351Z,3.50
2023-04-08T20:57:56.488Z,3.37
2023-04-08T21:00:23.801Z,3.40
2023-04-08T21:02:51.175Z,3.50
2023-04-08T21:05:18.514Z,3.40
2023-04-08T21:07:45.768Z,3.07
2023-04-08T21:10:14.355Z,3.13
2023-04-08T21:12:41.471Z,3.17
2023-04-08T21:15:08.995Z,3.00
2023-04-08T21:17:36.134Z,3.20
2023-04-08T21:20:04.442Z,2.80
2023-04-08T21:22:32.795Z,2.90
2023-04-08T21:24:59.922Z,3.00
2023-04-08T21:27:29.006Z,3.17
2023-04-08T21:29:56.125Z,3.27
2023-04-08T21:32:23.458Z,2.80
2023-04-08T21:34:54.076Z,3.10
2023-04-08T21:37:22.629Z,3.10
2023-04-08T21:39:50.358Z,3.10
2023-04-08T21:42:20.270Z,3.00
2023-04-08T21:44:47.690Z,2.90
2023-04-08T21:47:14.907Z,3.07
2023-04-08T21:49:42.337Z,2.83
2023-04-08T21:52:09.604Z,3.10
2023-04-08T21:54:36.778Z,3.00
2023-04-08T21:57:03.900Z,3.20
2023-04-08T21:59:31.044Z,3.07
2023-04-08T22:01:58.259Z,3.00
2023-04-08T22:04:25.396Z,2.70
2023-04-08T22:06:52.855Z,3.07
2023-04-08T22:09:19.986Z,2.80
2023-04-08T22:11:47.134Z,3.07
2023-04-08T22:14:15.486Z,3.30
2023-04-08T22:16:43.006Z,2.70
2023-04-08T22:19:10.543Z,2.50
2023-04-08T22:21:37.672Z,2.77
2023-04-08T22:24:04.915Z,2.50
2023-04-08T22:26:32.068Z,2.77
2023-04-08T22:28:59.203Z,2.60
2023-04-08T22:31:27.030Z,2.90
2023-04-08T22:33:54.173Z,2.90
2023-04-08T22:36:21.330Z,2.80
2023-04-08T22:38:48.471Z,2.87
2023-04-08T22:41:19.293Z,2.93
2023-04-08T22:43:46.429Z,2.80
2023-04-08T22:46:14.461Z,2.60
2023-04-08T22:48:41.938Z,2.67
2023-04-08T22:51:10.089Z,2.60
2023-04-08T22:53:37.735Z,2.47
2023-04-08T22:56:05.378Z,2.47
2023-04-08T22:58:32.510Z,2.80
2023-04-08T23:00:59.639Z,2.73
2023-04-08T23:03:26.848Z,2.57
2023-04-08T23:05:54.101Z,2.30
2023-04-08T23:08:21.269Z,2.40
2023-04-08T23:10:48.417Z,2.40
2023-04-08T23:13:15.589Z,2.20
2023-04-08T23:15:42.811Z,3.63
2023-04-08T23:18:10.047Z,2.60
2023-04-08T23:20:37.174Z,2.50
2023-04-08T23:23:04.368Z,2.47
2023-04-08T23:25:31.560Z,2.20
2023-04-08T23:27:58.676Z,2.23
2023-04-08T23:30:25.815Z,2.50
2023-04-08T23:32:53.004Z,2.30
2023-04-08T23:35:20.281Z,2.50
2023-04-08T23:37:47.448Z,2.20
2023-04-08T23:40:14.798Z,2.73
2023-04-08T23:42:42.023Z,2.57
2023-04-08T23:45:09.470Z,2.63
2023-04-08T23:47:36.656Z,2.23
2023-04-08T23:50:03.949Z,2.27
2023-04-08T23:52:31.147Z,2.30
2023-04-08T23:54:58.301Z,2.30
2023-04-08T23:57:25.625Z,2.70
2023-04-08T23:59:52.764Z,2.50
